sensor_id;sensor_type;location;lat;lon;timestamp;pressure;altitude;pressure_sealevel;temperature;humidity
12969;BME280;6549;53.128;8.182;2023-05-23T00:01:15;101204.13;;;14.15;100.00
12969;BME280;6549;53.128;8.182;2023-05-23T00:04:16;101204.50;;;14.14;100.00
12969;BME280;6549;53.128;8.182;2023-05-23T00:07:17;101206.50;;;14.13;100.00
12969;BME280;6549;53.128;8.182;2023-05-23T00:10:18;101197.81;;;14.15;100.00
12969;BME280;6549;53.128;8.182;2023-05-23T00:13:18;101197.41;;;14.13;100.00
12969;BME280;6549;53.128;8.182;2023-05-23T00:16:19;101201.75;;;14.14;100.00
12969;BME280;6549;53.128;8.182;2023-05-23T00:19:20;101204.91;;;14.12;100.00
12969;BME280;6549;53.128;8.182;2023-05-23T00:22:20;101194.63;;;14.13;100.00
12969;BME280;6549;53.128;8.182;2023-05-23T00:25:21;101208.88;;;14.15;100.00
12969;BME280;6549;53.128;8.182;2023-05-23T00:28:21;101198.59;;;14.15;100.00
12969;BME280;6549;53.128;8.182;2023-05-23T00:31:22;101206.09;;;14.15;100.00
12969;BME280;6549;53.128;8.182;2023-05-23T00:34:22;101187.53;;;14.15;100.00
12969;BME280;6549;53.128;8.182;2023-05-23T00:37:23;101197.81;;;14.15;100.00
12969;BME280;6549;53.128;8.182;2023-05-23T00:40:23;101199.38;;;14.16;100.00
12969;BME280;6549;53.128;8.182;2023-05-23T00:43:23;101203.72;;;14.17;100.00
12969;BME280;6549;53.128;8.182;2023-05-23T00:46:25;101195.41;;;14.17;100.00
12969;BME280;6549;53.128;8.182;2023-05-23T00:49:26;101197.78;;;14.18;100.00
12969;BME280;6549;53.128;8.182;2023-05-23T00:52:27;101191.47;;;14.18;100.00
12969;BME280;6549;53.128;8.182;2023-05-23T00:55:27;101192.66;;;14.17;100.00
12969;BME280;6549;53.128;8.182;2023-05-23T00:58:28;101199.38;;;14.16;100.00
12969;BME280;6549;53.128;8.182;2023-05-23T01:01:28;101197.00;;;14.18;100.00
12969;BME280;6549;53.128;8.182;2023-05-23T01:04:29;101195.84;;;14.15;100.00
12969;BME280;6549;53.128;8.182;2023-05-23T01:07:33;101191.09;;;14.12;100.00
12969;BME280;6549;53.128;8.182;2023-05-23T01:10:33;101185.97;;;14.14;100.00
12969;BME280;6549;53.128;8.182;2023-05-23T01:13:40;101183.59;;;14.13;100.00
12969;BME280;6549;53.128;8.182;2023-05-23T01:16:47;101182.00;;;14.12;100.00
12969;BME280;6549;53.128;8.182;2023-05-23T01:19:58;101176.09;;;14.10;100.00
12969;BME280;6549;53.128;8.182;2023-05-23T01:23:12;101169.78;;;14.06;100.00
12969;BME280;6549;53.128;8.182;2023-05-23T01:29:46;101181.66;;;14.03;100.00
12969;BME280;6549;53.128;8.182;2023-05-23T01:32:53;101176.91;;;14.00;100.00
12969;BME280;6549;53.128;8.182;2023-05-23T01:35:56;101181.25;;;14.01;100.00
12969;BME280;6549;53.128;8.182;2023-05-23T01:38:57;101180.88;;;13.95;100.00
12969;BME280;6549;53.128;8.182;2023-05-23T01:41:57;101177.72;;;13.93;100.00
12969;BME280;6549;53.128;8.182;2023-05-23T01:44:57;101184.81;;;13.90;100.00
12969;BME280;6549;53.128;8.182;2023-05-23T01:47:59;101183.66;;;13.88;100.00
12969;BME280;6549;53.128;8.182;2023-05-23T01:51:01;101183.66;;;13.84;100.00
12969;BME280;6549;53.128;8.182;2023-05-23T01:54:02;101176.56;;;13.83;100.00
12969;BME280;6549;53.128;8.182;2023-05-23T01:57:03;101191.56;;;13.79;100.00
12969;BME280;6549;53.128;8.182;2023-05-23T02:00:06;101193.53;;;13.78;100.00
12969;BME280;6549;53.128;8.182;2023-05-23T02:03:07;101194.31;;;13.79;100.00
12969;BME280;6549;53.128;8.182;2023-05-23T02:06:07;101184.84;;;13.83;100.00
12969;BME280;6549;53.128;8.182;2023-05-23T02:09:07;101196.28;;;13.82;100.00
12969;BME280;6549;53.128;8.182;2023-05-23T02:12:09;101195.50;;;13.81;100.00
12969;BME280;6549;53.128;8.182;2023-05-23T02:15:09;101206.94;;;13.83;100.00
12969;BME280;6549;53.128;8.182;2023-05-23T02:18:10;101201.03;;;13.78;100.00
12969;BME280;6549;53.128;8.182;2023-05-23T02:21:10;101201.41;;;13.76;100.00
12969;BME280;6549;53.128;8.182;2023-05-23T02:24:10;101198.28;;;13.74;100.00
12969;BME280;6549;53.128;8.182;2023-05-23T02:27:11;101197.09;;;13.75;100.00
12969;BME280;6549;53.128;8.182;2023-05-23T02:30:11;101205.38;;;13.75;100.00
12969;BME280;6549;53.128;8.182;2023-05-23T02:33:12;101199.84;;;13.75;100.00
12969;BME280;6549;53.128;8.182;2023-05-23T02:36:12;101195.50;;;13.74;100.00
12969;BME280;6549;53.128;8.182;2023-05-23T02:39:13;101205.38;;;13.75;100.00
12969;BME280;6549;53.128;8.182;2023-05-23T02:42:13;101205.38;;;13.75;100.00
12969;BME280;6549;53.128;8.182;2023-05-23T02:45:14;101208.50;;;13.77;100.00
12969;BME280;6549;53.128;8.182;2023-05-23T02:48:14;101207.34;;;13.78;100.00
12969;BME280;6549;53.128;8.182;2023-05-23T02:51:15;101210.50;;;13.80;100.00
12969;BME280;6549;53.128;8.182;2023-05-23T02:54:15;101207.34;;;13.78;100.00
12969;BME280;6549;53.128;8.182;2023-05-23T02:57:16;101214.84;;;13.78;100.00
12969;BME280;6549;53.128;8.182;2023-05-23T03:00:17;101216.00;;;13.77;100.00
12969;BME280;6549;53.128;8.182;2023-05-23T03:03:17;101231.00;;;13.72;100.00
12969;BME280;6549;53.128;8.182;2023-05-23T03:06:17;101223.13;;;13.67;100.00
12969;BME280;6549;53.128;8.182;2023-05-23T03:09:18;101219.97;;;13.69;100.00
12969;BME280;6549;53.128;8.182;2023-05-23T03:12:18;101216.03;;;13.70;100.00
12969;BME280;6549;53.128;8.182;2023-05-23T03:15:18;101214.44;;;13.72;100.00
12969;BME280;6549;53.128;8.182;2023-05-23T03:18:19;101223.13;;;13.71;100.00
12969;BME280;6549;53.128;8.182;2023-05-23T03:21:19;101224.69;;;13.68;100.00
12969;BME280;6549;53.128;8.182;2023-05-23T03:24:20;101233.38;;;13.70;100.00
12969;BME280;6549;53.128;8.182;2023-05-23T03:27:20;101240.88;;;13.70;100.00
12969;BME280;6549;53.128;8.182;2023-05-23T03:30:20;101242.88;;;13.62;100.00
12969;BME280;6549;53.128;8.182;2023-05-23T03:33:21;101243.63;;;13.59;100.00
12969;BME280;6549;53.128;8.182;2023-05-23T03:36:21;101245.59;;;13.48;100.00
12969;BME280;6549;53.128;8.182;2023-05-23T03:39:25;101254.28;;;13.39;100.00
12969;BME280;6549;53.128;8.182;2023-05-23T03:42:27;101253.47;;;13.39;100.00
12969;BME280;6549;53.128;8.182;2023-05-23T03:45:27;101255.44;;;13.31;100.00
12969;BME280;6549;53.128;8.182;2023-05-23T03:48:27;101260.16;;;13.24;100.00
12969;BME280;6549;53.128;8.182;2023-05-23T03:51:29;101262.53;;;13.22;100.00
12969;BME280;6549;53.128;8.182;2023-05-23T03:54:30;101269.22;;;13.21;100.00
12969;BME280;6549;53.128;8.182;2023-05-23T03:57:31;101271.59;;;13.19;100.00
12969;BME280;6549;53.128;8.182;2023-05-23T04:00:31;101282.63;;;13.19;100.00
12969;BME280;6549;53.128;8.182;2023-05-23T04:03:31;101285.34;;;13.12;100.00
12969;BME280;6549;53.128;8.182;2023-05-23T04:06:32;101285.31;;;13.08;100.00
12969;BME280;6549;53.128;8.182;2023-05-23T04:09:32;101293.19;;;13.06;100.00
12969;BME280;6549;53.128;8.182;2023-05-23T04:12:33;101288.88;;;13.05;100.00
12969;BME280;6549;53.128;8.182;2023-05-23T04:15:33;101300.66;;;13.02;100.00
12969;BME280;6549;53.128;8.182;2023-05-23T04:18:34;101301.81;;;12.97;100.00
12969;BME280;6549;53.128;8.182;2023-05-23T04:21:38;101310.47;;;12.92;100.00
12969;BME280;6549;53.128;8.182;2023-05-23T04:24:38;101318.34;;;12.87;100.00
12969;BME280;6549;53.128;8.182;2023-05-23T04:27:38;101316.75;;;12.86;100.00
12969;BME280;6549;53.128;8.182;2023-05-23T04:30:39;101320.69;;;12.85;100.00
12969;BME280;6549;53.128;8.182;2023-05-23T04:33:40;101326.97;;;12.82;100.00
12969;BME280;6549;53.128;8.182;2023-05-23T04:36:40;101327.38;;;12.80;100.00
12969;BME280;6549;53.128;8.182;2023-05-23T04:39:43;101331.72;;;12.81;100.00
12969;BME280;6549;53.128;8.182;2023-05-23T04:42:43;101332.50;;;12.78;100.00
12969;BME280;6549;53.128;8.182;2023-05-23T04:45:46;101336.38;;;12.70;100.00
12969;BME280;6549;53.128;8.182;2023-05-23T04:48:48;101335.97;;;12.68;100.00
12969;BME280;6549;53.128;8.182;2023-05-23T04:51:49;101347.03;;;12.72;100.00
12969;BME280;6549;53.128;8.182;2023-05-23T04:54:50;101339.50;;;12.65;100.00
12969;BME280;6549;53.128;8.182;2023-05-23T04:57:53;101344.22;;;12.61;100.00
12969;BME280;6549;53.128;8.182;2023-05-23T05:00:53;101352.84;;;12.56;100.00
12969;BME280;6549;53.128;8.182;2023-05-23T05:03:53;101355.88;;;12.40;100.00
12969;BME280;6549;53.128;8.182;2023-05-23T05:06:54;101365.28;;;12.36;100.00
12969;BME280;6549;53.128;8.182;2023-05-23T05:09:54;101381.78;;;12.29;100.00
12969;BME280;6549;53.128;8.182;2023-05-23T05:12:55;101375.91;;;12.34;100.00
12969;BME280;6549;53.128;8.182;2023-05-23T05:15:55;101384.09;;;12.23;100.00
12969;BME280;6549;53.128;8.182;2023-05-23T05:18:56;101376.16;;;12.14;100.00
12969;BME280;6549;53.128;8.182;2023-05-23T05:21:56;101384.78;;;12.13;100.00
12969;BME280;6549;53.128;8.182;2023-05-23T05:24:56;101397.78;;;12.12;100.00
12969;BME280;6549;53.128;8.182;2023-05-23T05:27:59;101402.88;;;12.10;100.00
12969;BME280;6549;53.128;8.182;2023-05-23T05:31:02;101404.81;;;12.06;100.00
12969;BME280;6549;53.128;8.182;2023-05-23T05:34:04;101407.53;;;12.03;100.00
12969;BME280;6549;53.128;8.182;2023-05-23T05:37:04;101416.63;;;12.07;100.00
12969;BME280;6549;53.128;8.182;2023-05-23T05:40:05;101422.47;;;12.02;100.00
12969;BME280;6549;53.128;8.182;2023-05-23T05:43:07;101431.88;;;11.97;100.00
12969;BME280;6549;53.128;8.182;2023-05-23T05:46:07;101432.19;;;11.89;100.00
12969;BME280;6549;53.128;8.182;2023-05-23T05:49:08;101432.56;;;11.91;100.00
12969;BME280;6549;53.128;8.182;2023-05-23T05:52:08;101443.91;;;11.82;100.00
12969;BME280;6549;53.128;8.182;2023-05-23T05:55:09;101441.91;;;11.79;100.00
12969;BME280;6549;53.128;8.182;2023-05-23T05:58:13;101440.41;;;11.85;100.00
12969;BME280;6549;53.128;8.182;2023-05-23T06:01:13;101448.22;;;11.80;100.00
12969;BME280;6549;53.128;8.182;2023-05-23T06:04:13;101452.97;;;11.83;100.00
12969;BME280;6549;53.128;8.182;2023-05-23T06:07:14;101452.00;;;11.68;100.00
12969;BME280;6549;53.128;8.182;2023-05-23T06:10:14;101461.81;;;11.69;100.00
12969;BME280;6549;53.128;8.182;2023-05-23T06:13:15;101468.91;;;11.70;100.00
12969;BME280;6549;53.128;8.182;2023-05-23T06:16:15;101471.63;;;11.66;100.00
12969;BME280;6549;53.128;8.182;2023-05-23T06:19:16;101472.44;;;11.67;100.00
12969;BME280;6549;53.128;8.182;2023-05-23T06:22:17;101481.84;;;11.66;100.00
12969;BME280;6549;53.128;8.182;2023-05-23T06:25:17;101482.28;;;11.68;100.00
12969;BME280;6549;53.128;8.182;2023-05-23T06:28:17;101491.69;;;11.67;100.00
12969;BME280;6549;53.128;8.182;2023-05-23T06:31:18;101497.25;;;11.70;100.00
12969;BME280;6549;53.128;8.182;2023-05-23T06:34:18;101497.75;;;11.76;100.00
12969;BME280;6549;53.128;8.182;2023-05-23T06:37:19;101498.47;;;11.73;100.00
12969;BME280;6549;53.128;8.182;2023-05-23T06:40:19;101509.06;;;11.71;100.00
12969;BME280;6549;53.128;8.182;2023-05-23T06:43:19;101511.47;;;11.73;100.00
12969;BME280;6549;53.128;8.182;2023-05-23T06:46:20;101517.69;;;11.69;100.00
12969;BME280;6549;53.128;8.182;2023-05-23T06:49:20;101520.44;;;11.69;100.00
12969;BME280;6549;53.128;8.182;2023-05-23T06:52:20;101525.47;;;11.64;100.00
12969;BME280;6549;53.128;8.182;2023-05-23T06:55:22;101529.72;;;11.58;100.00
12969;BME280;6549;53.128;8.182;2023-05-23T06:58:23;101539.84;;;11.50;100.00
12969;BME280;6549;53.128;8.182;2023-05-23T07:01:25;101548.38;;;11.42;100.00
12969;BME280;6549;53.128;8.182;2023-05-23T07:04:25;101560.56;;;11.41;100.00
12969;BME280;6549;53.128;8.182;2023-05-23T07:07:26;101556.47;;;11.31;100.00
12969;BME280;6549;53.128;8.182;2023-05-23T07:10:26;101559.28;;;11.35;100.00
12969;BME280;6549;53.128;8.182;2023-05-23T07:13:26;101562.78;;;11.32;100.00
12969;BME280;6549;53.128;8.182;2023-05-23T07:16:27;101561.88;;;11.24;100.00
12969;BME280;6549;53.128;8.182;2023-05-23T07:19:27;101570.75;;;11.14;100.00
12969;BME280;6549;53.128;8.182;2023-05-23T07:22:27;101570.72;;;11.10;100.00
12969;BME280;6549;53.128;8.182;2023-05-23T07:25:28;101571.03;;;11.05;100.00
12969;BME280;6549;53.128;8.182;2023-05-23T07:28:28;101578.78;;;11.00;100.00
12969;BME280;6549;53.128;8.182;2023-05-23T07:31:29;101581.47;;;10.96;100.00
12969;BME280;6549;53.128;8.182;2023-05-23T07:34:29;101587.88;;;11.04;100.00
12969;BME280;6549;53.128;8.182;2023-05-23T07:37:29;101605.94;;;11.01;100.00
12969;BME280;6549;53.128;8.182;2023-05-23T07:40:30;101600.44;;;11.01;100.00
12969;BME280;6549;53.128;8.182;2023-05-23T07:43:30;101600.59;;;10.89;100.00
12969;BME280;6549;53.128;8.182;2023-05-23T07:46:30;101598.78;;;10.97;100.00
12969;BME280;6549;53.128;8.182;2023-05-23T07:49:31;101609.53;;;11.05;100.00
12969;BME280;6549;53.128;8.182;2023-05-23T07:52:31;101617.19;;;10.93;100.00
12969;BME280;6549;53.128;8.182;2023-05-23T07:55:32;101612.09;;;10.95;100.00
12969;BME280;6549;53.128;8.182;2023-05-23T07:58:32;101627.72;;;10.91;100.00
12969;BME280;6549;53.128;8.182;2023-05-23T08:01:32;101611.91;;;10.84;100.00
12969;BME280;6549;53.128;8.182;2023-05-23T08:04:33;101628.31;;;10.80;100.00
12969;BME280;6549;53.128;8.182;2023-05-23T08:07:33;101631.81;;;10.77;100.00
12969;BME280;6549;53.128;8.182;2023-05-23T08:10:33;101637.03;;;10.82;100.00
12969;BME280;6549;53.128;8.182;2023-05-23T08:13:34;101641.41;;;10.87;100.00
12969;BME280;6549;53.128;8.182;2023-05-23T08:16:34;101650.03;;;10.86;100.00
12969;BME280;6549;53.128;8.182;2023-05-23T08:19:35;101649.38;;;10.92;100.00
12969;BME280;6549;53.128;8.182;2023-05-23T08:22:36;101651.75;;;10.94;100.00
12969;BME280;6549;53.128;8.182;2023-05-23T08:25:36;101649.00;;;10.94;100.00
12969;BME280;6549;53.128;8.182;2023-05-23T08:28:37;101657.44;;;11.04;100.00
12969;BME280;6549;53.128;8.182;2023-05-23T08:31:37;101660.94;;;11.01;100.00
12969;BME280;6549;53.128;8.182;2023-05-23T08:34:39;101671.06;;;10.97;100.00
12969;BME280;6549;53.128;8.182;2023-05-23T08:37:39;101663.25;;;10.99;100.00
12969;BME280;6549;53.128;8.182;2023-05-23T08:40:43;101663.25;;;10.99;100.00
12969;BME280;6549;53.128;8.182;2023-05-23T08:43:48;101672.16;;;11.15;100.00
12969;BME280;6549;53.128;8.182;2023-05-23T08:46:52;101669.53;;;11.22;100.00
12969;BME280;6549;53.128;8.182;2023-05-23T08:49:54;101674.19;;;11.18;100.00
12969;BME280;6549;53.128;8.182;2023-05-23T08:52:58;101675.03;;;11.22;100.00
12969;BME280;6549;53.128;8.182;2023-05-23T08:55:59;101687.69;;;11.27;100.00
12969;BME280;6549;53.128;8.182;2023-05-23T08:59:01;101681.91;;;11.32;100.00
12969;BME280;6549;53.128;8.182;2023-05-23T09:02:07;101682.53;;;11.48;100.00
12969;BME280;6549;53.128;8.182;2023-05-23T09:05:09;101681.44;;;11.53;100.00
12969;BME280;6549;53.128;8.182;2023-05-23T09:08:10;101675.59;;;11.81;100.00
12969;BME280;6549;53.128;8.182;2023-05-23T09:11:10;101685.69;;;12.26;100.00
12969;BME280;6549;53.128;8.182;2023-05-23T09:14:13;101703.88;;;12.67;100.00
12969;BME280;6549;53.128;8.182;2023-05-23T09:17:20;101699.06;;;12.94;100.00
12969;BME280;6549;53.128;8.182;2023-05-23T09:20:21;101697.59;;;13.03;100.00
12969;BME280;6549;53.128;8.182;2023-05-23T09:23:21;101711.78;;;13.05;100.00
12969;BME280;6549;53.128;8.182;2023-05-23T09:26:22;101708.97;;;12.98;100.00
12969;BME280;6549;53.128;8.182;2023-05-23T09:29:23;101720.34;;;12.93;100.00
12969;BME280;6549;53.128;8.182;2023-05-23T09:32:23;101729.97;;;12.73;100.00
12969;BME280;6549;53.128;8.182;2023-05-23T09:35:23;101714.31;;;12.47;100.00
12969;BME280;6549;53.128;8.182;2023-05-23T09:38:24;101721.19;;;12.64;100.00
12969;BME280;6549;53.128;8.182;2023-05-23T09:41:29;101729.47;;;12.64;100.00
12969;BME280;6549;53.128;8.182;2023-05-23T09:44:29;101724.78;;;12.68;100.00
12969;BME280;6549;53.128;8.182;2023-05-23T09:47:33;101730.31;;;12.68;100.00
12969;BME280;6549;53.128;8.182;2023-05-23T09:50:33;101736.47;;;12.58;100.00
12969;BME280;6549;53.128;8.182;2023-05-23T09:53:34;101743.78;;;12.43;100.00
12969;BME280;6549;53.128;8.182;2023-05-23T09:56:36;101745.22;;;12.34;100.00
12969;BME280;6549;53.128;8.182;2023-05-23T09:59:40;101742.59;;;12.14;100.00
12969;BME280;6549;53.128;8.182;2023-05-23T10:05:59;101738.25;;;12.73;100.00
12969;BME280;6549;53.128;8.182;2023-05-23T10:09:03;101741.56;;;12.89;100.00
12969;BME280;6549;53.128;8.182;2023-05-23T10:12:46;101755.22;;;13.49;100.00
12969;BME280;6549;53.128;8.182;2023-05-23T10:15:50;101754.41;;;13.92;100.00
12969;BME280;6549;53.128;8.182;2023-05-23T10:18:56;101754.06;;;14.05;100.00
12969;BME280;6549;53.128;8.182;2023-05-23T10:21:58;101749.00;;;14.10;100.00
12969;BME280;6549;53.128;8.182;2023-05-23T10:24:59;101750.50;;;14.04;100.00
12969;BME280;6549;53.128;8.182;2023-05-23T10:28:01;101757.78;;;13.72;100.00
12969;BME280;6549;53.128;8.182;2023-05-23T10:31:02;101759.75;;;13.71;100.00
12969;BME280;6549;53.128;8.182;2023-05-23T10:34:25;101755.59;;;13.47;100.00
12969;BME280;6549;53.128;8.182;2023-05-23T10:37:38;101766.75;;;13.58;100.00
12969;BME280;6549;53.128;8.182;2023-05-23T10:40:52;101761.63;;;13.60;100.00
12969;BME280;6549;53.128;8.182;2023-05-23T10:44:11;101761.25;;;13.62;100.00
12969;BME280;6549;53.128;8.182;2023-05-23T10:47:25;101781.81;;;13.68;100.00
12969;BME280;6549;53.128;8.182;2023-05-23T10:50:35;101774.19;;;14.02;100.00
12969;BME280;6549;53.128;8.182;2023-05-23T10:53:41;101787.09;;;14.38;100.00
12969;BME280;6549;53.128;8.182;2023-05-23T10:56:41;101777.56;;;14.32;100.00
12969;BME280;6549;53.128;8.182;2023-05-23T10:59:44;101783.69;;;14.08;100.00
12969;BME280;6549;53.128;8.182;2023-05-23T11:02:52;101774.88;;;13.84;100.00
12969;BME280;6549;53.128;8.182;2023-05-23T11:05:55;101783.63;;;13.93;100.00
12969;BME280;6549;53.128;8.182;2023-05-23T11:09:04;101801.88;;;14.09;100.00
12969;BME280;6549;53.128;8.182;2023-05-23T11:12:06;101791.19;;;14.65;100.00
12969;BME280;6549;53.128;8.182;2023-05-23T11:21:21;101799.13;;;14.70;100.00
12969;BME280;6549;53.128;8.182;2023-05-23T11:24:22;101805.31;;;14.46;100.00
12969;BME280;6549;53.128;8.182;2023-05-23T11:30:27;101801.41;;;14.54;100.00
12969;BME280;6549;53.128;8.182;2023-05-23T11:33:29;101812.69;;;14.28;100.00
12969;BME280;6549;53.128;8.182;2023-05-23T11:36:29;101818.78;;;13.97;100.00
12969;BME280;6549;53.128;8.182;2023-05-23T11:39:30;101812.41;;;13.89;100.00
12969;BME280;6549;53.128;8.182;2023-05-23T11:42:31;101805.09;;;14.18;100.00
12969;BME280;6549;53.128;8.182;2023-05-23T11:45:32;101820.19;;;14.31;100.00
12969;BME280;6549;53.128;8.182;2023-05-23T11:48:32;101827.16;;;14.65;100.00
12969;BME280;6549;53.128;8.182;2023-05-23T11:51:33;101828.28;;;14.57;100.00
12969;BME280;6549;53.128;8.182;2023-05-23T11:54:33;101823.19;;;14.66;100.00
12969;BME280;6549;53.128;8.182;2023-05-23T11:57:37;101830.59;;;14.45;100.00
12969;BME280;6549;53.128;8.182;2023-05-23T12:00:45;101828.19;;;14.39;100.00
12969;BME280;6549;53.128;8.182;2023-05-23T12:03:46;101830.00;;;14.79;100.00
12969;BME280;6549;53.128;8.182;2023-05-23T12:06:48;101822.97;;;15.00;100.00
12969;BME280;6549;53.128;8.182;2023-05-23T12:09:48;101827.59;;;14.74;100.00
12969;BME280;6549;53.128;8.182;2023-05-23T12:12:50;101831.47;;;14.59;100.00
12969;BME280;6549;53.128;8.182;2023-05-23T12:16:00;101830.91;;;15.08;100.00
12969;BME280;6549;53.128;8.182;2023-05-23T12:19:03;101839.66;;;15.24;100.00
12969;BME280;6549;53.128;8.182;2023-05-23T12:22:06;101846.34;;;15.13;100.00
12969;BME280;6549;53.128;8.182;2023-05-23T12:25:10;101846.84;;;15.43;100.00
12969;BME280;6549;53.128;8.182;2023-05-23T12:28:10;101842.16;;;15.61;100.00
12969;BME280;6549;53.128;8.182;2023-05-23T12:31:20;101854.31;;;15.32;100.00
12969;BME280;6549;53.128;8.182;2023-05-23T12:34:20;101853.13;;;15.26;100.00
12969;BME280;6549;53.128;8.182;2023-05-23T12:37:20;101844.69;;;14.98;100.00
12969;BME280;6549;53.128;8.182;2023-05-23T12:40:21;101847.50;;;15.05;100.00
12969;BME280;6549;53.128;8.182;2023-05-23T12:43:21;101859.47;;;15.30;100.00
12969;BME280;6549;53.128;8.182;2023-05-23T12:46:26;101845.19;;;15.21;100.00
12969;BME280;6549;53.128;8.182;2023-05-23T12:49:26;101849.94;;;15.17;100.00
12969;BME280;6549;53.128;8.182;2023-05-23T12:52:26;101855.63;;;15.73;100.00
12969;BME280;6549;53.128;8.182;2023-05-23T12:55:27;101851.69;;;15.89;100.00
12969;BME280;6549;53.128;8.182;2023-05-23T12:58:27;101850.09;;;15.81;100.00
12969;BME280;6549;53.128;8.182;2023-05-23T13:01:29;101854.81;;;15.59;100.00
12969;BME280;6549;53.128;8.182;2023-05-23T13:04:30;101851.47;;;15.11;100.00
12969;BME280;6549;53.128;8.182;2023-05-23T13:07:30;101861.00;;;15.24;100.00
12969;BME280;6549;53.128;8.182;2023-05-23T13:10:30;101857.63;;;15.91;100.00
12969;BME280;6549;53.128;8.182;2023-05-23T13:13:31;101858.81;;;15.79;95.36
12969;BME280;6549;53.128;8.182;2023-05-23T13:16:32;101867.03;;;15.44;100.00
12969;BME280;6549;53.128;8.182;2023-05-23T13:19:35;101864.91;;;15.05;97.16
12969;BME280;6549;53.128;8.182;2023-05-23T13:22:36;101874.91;;;15.35;100.00
12969;BME280;6549;53.128;8.182;2023-05-23T13:25:36;101885.69;;;15.64;96.49
12969;BME280;6549;53.128;8.182;2023-05-23T13:28:36;101869.91;;;15.79;95.96
12969;BME280;6549;53.128;8.182;2023-05-23T13:31:37;101877.81;;;15.77;91.15
12969;BME280;6549;53.128;8.182;2023-05-23T13:34:37;101873.84;;;15.75;90.95
12969;BME280;6549;53.128;8.182;2023-05-23T13:37:38;101877.69;;;15.45;95.48
12969;BME280;6549;53.128;8.182;2023-05-23T13:40:38;101872.06;;;15.17;99.69
12969;BME280;6549;53.128;8.182;2023-05-23T13:43:38;101869.84;;;14.64;100.00
12969;BME280;6549;53.128;8.182;2023-05-23T13:46:39;101874.88;;;14.52;100.00
12969;BME280;6549;53.128;8.182;2023-05-23T13:49:40;101867.09;;;14.71;100.00
12969;BME280;6549;53.128;8.182;2023-05-23T13:52:41;101868.53;;;15.27;95.53
12969;BME280;6549;53.128;8.182;2023-05-23T13:55:41;101874.94;;;15.45;100.00
12969;BME280;6549;53.128;8.182;2023-05-23T13:58:42;101880.53;;;15.59;93.04
12969;BME280;6549;53.128;8.182;2023-05-23T14:01:46;101884.41;;;15.34;93.42
12969;BME280;6549;53.128;8.182;2023-05-23T14:04:47;101874.72;;;14.92;99.17
12969;BME280;6549;53.128;8.182;2023-05-23T14:07:47;101870.34;;;14.88;100.00
12969;BME280;6549;53.128;8.182;2023-05-23T14:10:48;101875.94;;;14.98;100.00
12969;BME280;6549;53.128;8.182;2023-05-23T14:13:48;101875.09;;;14.87;100.00
12969;BME280;6549;53.128;8.182;2023-05-23T14:16:52;101873.56;;;15.00;100.00
12969;BME280;6549;53.128;8.182;2023-05-23T14:19:52;101877.00;;;15.69;99.45
12969;BME280;6549;53.128;8.182;2023-05-23T14:22:52;101883.75;;;15.83;95.68
12969;BME280;6549;53.128;8.182;2023-05-23T14:25:53;101885.06;;;15.09;89.51
12969;BME280;6549;53.128;8.182;2023-05-23T14:28:53;101884.13;;;14.73;92.62
12969;BME280;6549;53.128;8.182;2023-05-23T14:31:53;101884.97;;;14.30;94.62
12969;BME280;6549;53.128;8.182;2023-05-23T14:34:54;101885.69;;;14.20;95.05
12969;BME280;6549;53.128;8.182;2023-05-23T14:37:54;101884.13;;;14.22;97.13
12969;BME280;6549;53.128;8.182;2023-05-23T14:40:55;101882.31;;;13.97;96.97
12969;BME280;6549;53.128;8.182;2023-05-23T14:43:55;101882.81;;;13.65;95.98
12969;BME280;6549;53.128;8.182;2023-05-23T14:46:55;101887.50;;;13.61;98.25
12969;BME280;6549;53.128;8.182;2023-05-23T14:49:56;101891.47;;;14.04;89.65
12969;BME280;6549;53.128;8.182;2023-05-23T14:52:56;101884.03;;;14.59;88.80
12969;BME280;6549;53.128;8.182;2023-05-23T14:55:56;101891.44;;;14.48;88.92
12969;BME280;6549;53.128;8.182;2023-05-23T14:58:57;101899.16;;;14.25;87.93
12969;BME280;6549;53.128;8.182;2023-05-23T15:01:57;101897.16;;;14.25;86.87
12969;BME280;6549;53.128;8.182;2023-05-23T15:04:57;101904.56;;;14.11;88.81
12969;BME280;6549;53.128;8.182;2023-05-23T15:07:58;101904.72;;;13.84;94.08
12969;BME280;6549;53.128;8.182;2023-05-23T15:10:58;101909.78;;;13.79;99.69
12969;BME280;6549;53.128;8.182;2023-05-23T15:13:59;101910.16;;;13.77;100.00
12969;BME280;6549;53.128;8.182;2023-05-23T15:16:59;101909.75;;;13.75;100.00
12969;BME280;6549;53.128;8.182;2023-05-23T15:20:07;101905.72;;;13.69;100.00
12969;BME280;6549;53.128;8.182;2023-05-23T15:23:07;101909.53;;;13.94;100.00
12969;BME280;6549;53.128;8.182;2023-05-23T15:26:09;101910.94;;;14.18;95.62
12969;BME280;6549;53.128;8.182;2023-05-23T15:29:09;101915.53;;;14.44;94.99
12969;BME280;6549;53.128;8.182;2023-05-23T15:32:09;101913.59;;;14.08;86.76
12969;BME280;6549;53.128;8.182;2023-05-23T15:35:10;101912.38;;;14.02;84.20
12969;BME280;6549;53.128;8.182;2023-05-23T15:38:10;101921.41;;;13.99;84.77
12969;BME280;6549;53.128;8.182;2023-05-23T15:41:11;101926.09;;;13.91;85.88
12969;BME280;6549;53.128;8.182;2023-05-23T15:44:11;101920.28;;;13.63;90.17
12969;BME280;6549;53.128;8.182;2023-05-23T15:47:12;101919.38;;;13.88;91.75
12969;BME280;6549;53.128;8.182;2023-05-23T15:50:13;101922.34;;;13.73;95.45
12969;BME280;6549;53.128;8.182;2023-05-23T15:53:13;101928.34;;;13.45;89.95
12969;BME280;6549;53.128;8.182;2023-05-23T15:56:13;101917.50;;;13.29;94.18
12969;BME280;6549;53.128;8.182;2023-05-23T15:59:14;101926.44;;;13.19;94.87
12969;BME280;6549;53.128;8.182;2023-05-23T16:02:15;101928.53;;;13.29;94.81
12969;BME280;6549;53.128;8.182;2023-05-23T16:05:18;101932.31;;;13.47;95.21